PWSweather.com
Personal Weather Stations
Station Observations
ARECO747
Argentina , San Antonio ArecoAR Bs.As

Argentina San Antonio ArecoAR Bs.As

Lat: -34.24447275818, Lon: -59.47654187679

Elevation: 102

Station Type: InformaciĆ³n generada con nuevo Microchip Ethernet conectado a estaciĆ³n WH1081

http://www.meteostar.com.ar

High Low Average
Temperature 92.7°F33.7°C 63.9°F17.7°C 77.3°F25.2°C
Dew Point 66.7°F19.3°C 57.4°F14.1°C 62.7°F17.1°C
Winds 9.8 mph 15.8 kmh Calm Calm 3.0 mph SE4.8 kmh SE
Wind Gusts 12.1 mph19.5 kmh -- 5.0 mph8.0 kmh
Humidity 93% 35% 65%
Pressure 29.98 in1015.2 mb 29.89 in1012.2 mb -
Precipitation 0.00 in0.0 mm - -
Hour Temp Dew Point Humidity Winds Wind Gusts Pressure Precip Precip Rate Daily Precip Total
12:04 AM 66.7°F19.3°C 64.0°F17.8°C 91% 3.8 mph E6.1 kmh E 6.9 mph11.1 kmh 29.92 in1013.2 mb 0.00 in0.0 mm 0.00 in0.0 mm 0.00 in0.0 mm
12:09 AM 66.7°F19.3°C 64.0°F17.8°C 91% 2.2 mph SE3.5 kmh SE 6.9 mph11.1 kmh 29.92 in1013.2 mb 0.00 in0.0 mm 0.00 in0.0 mm 0.00 in0.0 mm
12:14 AM 66.7°F19.3°C 64.0°F17.8°C 91% 5.4 mph E8.7 kmh E 6.9 mph11.1 kmh 29.92 in1013.2 mb 0.00 in0.0 mm 0.00 in0.0 mm 0.00 in0.0 mm
12:19 AM 66.6°F19.2°C 63.9°F17.7°C 91% 3.8 mph E6.1 kmh E 6.9 mph11.1 kmh 29.92 in1013.2 mb 0.00 in0.0 mm 0.00 in0.0 mm 0.00 in0.0 mm
12:24 AM 66.6°F19.2°C 63.9°F17.7°C 91% 3.1 mph NE5.0 kmh NE 6.9 mph11.1 kmh 29.92 in1013.2 mb 0.00 in0.0 mm 0.00 in0.0 mm 0.00 in0.0 mm
12:29 AM 66.6°F19.2°C 63.9°F17.7°C 91% 4.5 mph E7.2 kmh E 8.3 mph13.4 kmh 29.92 in1013.2 mb 0.00 in0.0 mm 0.00 in0.0 mm 0.00 in0.0 mm
12:35 AM 66.6°F19.2°C 63.9°F17.7°C 91% 4.5 mph NE7.2 kmh NE 8.3 mph13.4 kmh 29.92 in1013.2 mb 0.00 in0.0 mm 0.00 in0.0 mm 0.00 in0.0 mm
12:40 AM 66.4°F19.1°C 63.7°F17.6°C 91% 3.1 mph E5.0 kmh E 8.3 mph13.4 kmh 29.92 in1013.2 mb 0.00 in0.0 mm 0.00 in0.0 mm 0.00 in0.0 mm
12:45 AM 66.4°F19.1°C 63.7°F17.6°C 91% 3.8 mph NE6.1 kmh NE 6.0 mph9.7 kmh 29.93 in1013.5 mb 0.00 in0.0 mm 0.00 in0.0 mm 0.00 in0.0 mm
12:50 AM 66.2°F19.0°C 63.5°F17.5°C 91% 3.1 mph E5.0 kmh E 6.0 mph9.7 kmh 29.93 in1013.5 mb 0.00 in0.0 mm 0.00 in0.0 mm 0.00 in0.0 mm
12:55 AM 66.2°F19.0°C 63.5°F17.5°C 91% 3.8 mph E6.1 kmh E 6.9 mph11.1 kmh 29.92 in1013.2 mb 0.00 in0.0 mm 0.00 in0.0 mm 0.00 in0.0 mm
01:00 AM 66.4°F19.1°C 63.7°F17.6°C 91% 5.4 mph E8.7 kmh E 8.3 mph13.4 kmh 29.92 in1013.2 mb 0.00 in0.0 mm 0.00 in0.0 mm 0.00 in0.0 mm
01:06 AM 66.4°F19.1°C 63.7°F17.6°C 91% 4.5 mph E7.2 kmh E 7.6 mph12.2 kmh 29.92 in1013.2 mb 0.00 in0.0 mm 0.00 in0.0 mm 0.00 in0.0 mm
01:11 AM 66.4°F19.1°C 63.7°F17.6°C 91% 5.4 mph E8.7 kmh E 10.7 mph17.2 kmh 29.92 in1013.2 mb 0.00 in0.0 mm 0.00 in0.0 mm 0.00 in0.0 mm
01:16 AM 66.4°F19.1°C 63.7°F17.6°C 91% 4.5 mph E7.2 kmh E 7.6 mph12.2 kmh 29.93 in1013.5 mb 0.00 in0.0 mm 0.00 in0.0 mm 0.00 in0.0 mm
01:21 AM 66.4°F19.1°C 63.7°F17.6°C 91% 3.8 mph NE6.1 kmh NE 6.9 mph11.1 kmh 29.92 in1013.2 mb 0.00 in0.0 mm 0.00 in0.0 mm 0.00 in0.0 mm
01:26 AM 66.2°F19.0°C 63.5°F17.5°C 91% 5.4 mph E8.7 kmh E 6.0 mph9.7 kmh 29.92 in1013.2 mb 0.00 in0.0 mm 0.00 in0.0 mm 0.00 in0.0 mm
01:32 AM 66.2°F19.0°C 63.9°F17.7°C 92% 3.8 mph E6.1 kmh E 6.0 mph9.7 kmh 29.93 in1013.5 mb 0.00 in0.0 mm 0.00 in0.0 mm 0.00 in0.0 mm
01:37 AM 66.2°F19.0°C 63.9°F17.7°C 92% 4.5 mph NE7.2 kmh NE 6.0 mph9.7 kmh 29.92 in1013.2 mb 0.00 in0.0 mm 0.00 in0.0 mm 0.00 in0.0 mm
01:42 AM 66.2°F19.0°C 63.9°F17.7°C 92% 6.0 mph E9.7 kmh E 6.9 mph11.1 kmh 29.92 in1013.2 mb 0.00 in0.0 mm 0.00 in0.0 mm 0.00 in0.0 mm
01:47 AM 66.2°F19.0°C 63.9°F17.7°C 92% 3.1 mph NE5.0 kmh NE 6.9 mph11.1 kmh 29.92 in1013.2 mb 0.00 in0.0 mm 0.00 in0.0 mm 0.00 in0.0 mm
01:52 AM 66.2°F19.0°C 63.9°F17.7°C 92% 3.8 mph E6.1 kmh E 5.4 mph8.7 kmh 29.92 in1013.2 mb 0.00 in0.0 mm 0.00 in0.0 mm 0.00 in0.0 mm
01:57 AM 66.2°F19.0°C 63.9°F17.7°C 92% 3.8 mph E6.1 kmh E 6.0 mph9.7 kmh 29.92 in1013.2 mb 0.00 in0.0 mm 0.00 in0.0 mm 0.00 in0.0 mm
02:02 AM 66.2°F19.0°C 63.9°F17.7°C 92% 3.8 mph NE6.1 kmh NE -- 29.92 in1013.2 mb 0.00 in0.0 mm 0.00 in0.0 mm 0.00 in0.0 mm
02:05 AM 66.2°F19.0°C 63.9°F17.7°C 92% 3.8 mph NE6.1 kmh NE -- 29.92 in1013.2 mb 0.00 in0.0 mm 0.00 in0.0 mm 0.00 in0.0 mm
02:10 AM 66.2°F19.0°C 63.9°F17.7°C 92% 3.8 mph ENE6.1 kmh ENE 6.9 mph11.1 kmh 29.92 in1013.2 mb 0.00 in0.0 mm 0.00 in0.0 mm 0.00 in0.0 mm
02:15 AM 66.2°F19.0°C 63.9°F17.7°C 92% 5.4 mph E8.7 kmh E 6.9 mph11.1 kmh 29.91 in1012.9 mb 0.00 in0.0 mm 0.00 in0.0 mm 0.00 in0.0 mm
02:20 AM 66.2°F19.0°C 63.9°F17.7°C 92% 3.8 mph E6.1 kmh E 8.3 mph13.4 kmh 29.91 in1012.9 mb 0.00 in0.0 mm 0.00 in0.0 mm 0.00 in0.0 mm
02:26 AM 66.0°F18.9°C 63.7°F17.6°C 92% 3.1 mph NE5.0 kmh NE 6.0 mph9.7 kmh 29.91 in1012.9 mb 0.00 in0.0 mm 0.00 in0.0 mm 0.00 in0.0 mm
02:31 AM 65.8°F18.8°C 63.5°F17.5°C 92% 1.6 mph E2.6 kmh E 5.4 mph8.7 kmh 29.91 in1012.9 mb 0.00 in0.0 mm 0.00 in0.0 mm 0.00 in0.0 mm
02:36 AM 65.8°F18.8°C 63.5°F17.5°C 92% 3.8 mph E6.1 kmh E 5.4 mph8.7 kmh 29.91 in1012.9 mb 0.00 in0.0 mm 0.00 in0.0 mm 0.00 in0.0 mm
02:41 AM 65.8°F18.8°C 63.5°F17.5°C 92% 3.1 mph NE5.0 kmh NE 6.0 mph9.7 kmh 29.91 in1012.9 mb 0.00 in0.0 mm 0.00 in0.0 mm 0.00 in0.0 mm
02:46 AM 65.8°F18.8°C 63.5°F17.5°C 92% 5.4 mph E8.7 kmh E 7.6 mph12.2 kmh 29.91 in1012.9 mb 0.00 in0.0 mm 0.00 in0.0 mm 0.00 in0.0 mm
02:51 AM 65.8°F18.8°C 63.5°F17.5°C 92% 5.4 mph ESE8.7 kmh ESE 8.3 mph13.4 kmh 29.91 in1012.9 mb 0.00 in0.0 mm 0.00 in0.0 mm 0.00 in0.0 mm
02:57 AM 65.8°F18.8°C 63.5°F17.5°C 92% 4.5 mph E7.2 kmh E 8.3 mph13.4 kmh 29.91 in1012.9 mb 0.00 in0.0 mm 0.00 in0.0 mm 0.00 in0.0 mm
03:02 AM 65.8°F18.8°C 63.5°F17.5°C 92% 3.8 mph ENE6.1 kmh ENE 6.0 mph9.7 kmh 29.91 in1012.9 mb 0.00 in0.0 mm 0.00 in0.0 mm 0.00 in0.0 mm
03:07 AM 65.8°F18.8°C 63.5°F17.5°C 92% 4.5 mph E7.2 kmh E 6.0 mph9.7 kmh 29.91 in1012.9 mb 0.00 in0.0 mm 0.00 in0.0 mm 0.00 in0.0 mm
03:12 AM 65.8°F18.8°C 63.5°F17.5°C 92% 3.1 mph E5.0 kmh E 6.0 mph9.7 kmh 29.91 in1012.9 mb 0.00 in0.0 mm 0.00 in0.0 mm 0.00 in0.0 mm
03:17 AM 65.8°F18.8°C 63.5°F17.5°C 92% 3.8 mph E6.1 kmh E 5.4 mph8.7 kmh 29.91 in1012.9 mb 0.00 in0.0 mm 0.00 in0.0 mm 0.00 in0.0 mm
03:22 AM 65.7°F18.7°C 63.3°F17.4°C 92% 2.2 mph E3.5 kmh E 5.4 mph8.7 kmh 29.91 in1012.9 mb 0.00 in0.0 mm 0.00 in0.0 mm 0.00 in0.0 mm
03:28 AM 65.7°F18.7°C 63.3°F17.4°C 92% 2.2 mph E3.5 kmh E 4.5 mph7.2 kmh 29.91 in1012.9 mb 0.00 in0.0 mm 0.00 in0.0 mm 0.00 in0.0 mm
03:33 AM 65.5°F18.6°C 63.1°F17.3°C 92% 1.6 mph E2.6 kmh E 3.8 mph6.1 kmh 29.91 in1012.9 mb 0.00 in0.0 mm 0.00 in0.0 mm 0.00 in0.0 mm
03:38 AM 65.3°F18.5°C 63.0°F17.2°C 92% 0.7 mph E1.1 kmh E 4.5 mph7.2 kmh 29.91 in1012.9 mb 0.00 in0.0 mm 0.00 in0.0 mm 0.00 in0.0 mm
03:43 AM 65.3°F18.5°C 63.0°F17.2°C 92% 2.2 mph NE3.5 kmh NE 4.5 mph7.2 kmh 29.91 in1012.9 mb 0.00 in0.0 mm 0.00 in0.0 mm 0.00 in0.0 mm
03:48 AM 65.3°F18.5°C 63.0°F17.2°C 92% 2.2 mph E3.5 kmh E 3.1 mph5.0 kmh 29.91 in1012.9 mb 0.00 in0.0 mm 0.00 in0.0 mm 0.00 in0.0 mm
03:53 AM 65.3°F18.5°C 63.0°F17.2°C 92% 2.2 mph SE3.5 kmh SE 3.8 mph6.1 kmh 29.91 in1012.9 mb 0.00 in0.0 mm 0.00 in0.0 mm 0.00 in0.0 mm
03:59 AM 65.3°F18.5°C 63.0°F17.2°C 92% 3.1 mph E5.0 kmh E 4.5 mph7.2 kmh 29.91 in1012.9 mb 0.00 in0.0 mm 0.00 in0.0 mm 0.00 in0.0 mm
04:04 AM 65.3°F18.5°C 63.0°F17.2°C 92% 1.6 mph E2.6 kmh E 3.8 mph6.1 kmh 29.91 in1012.9 mb 0.00 in0.0 mm 0.00 in0.0 mm 0.00 in0.0 mm
04:09 AM 65.3°F18.5°C 63.0°F17.2°C 92% 3.8 mph NE6.1 kmh NE 4.5 mph7.2 kmh 29.91 in1012.9 mb 0.00 in0.0 mm 0.00 in0.0 mm 0.00 in0.0 mm
04:14 AM 65.3°F18.5°C 63.0°F17.2°C 92% 2.2 mph E3.5 kmh E 3.8 mph6.1 kmh 29.90 in1012.5 mb 0.00 in0.0 mm 0.00 in0.0 mm 0.00 in0.0 mm
04:19 AM 65.1°F18.4°C 63.0°F17.2°C 93% 1.6 mph E2.6 kmh E 3.8 mph6.1 kmh 29.91 in1012.9 mb 0.00 in0.0 mm 0.00 in0.0 mm 0.00 in0.0 mm
04:24 AM 65.1°F18.4°C 63.0°F17.2°C 93% 2.2 mph E3.5 kmh E 4.5 mph7.2 kmh 29.91 in1012.9 mb 0.00 in0.0 mm 0.00 in0.0 mm 0.00 in0.0 mm
04:30 AM 65.1°F18.4°C 63.0°F17.2°C 93% 2.2 mph E3.5 kmh E 3.8 mph6.1 kmh 29.91 in1012.9 mb 0.00 in0.0 mm 0.00 in0.0 mm 0.00 in0.0 mm
04:35 AM 65.1°F18.4°C 63.0°F17.2°C 93% 1.6 mph NE2.6 kmh NE 3.8 mph6.1 kmh 29.91 in1012.9 mb 0.00 in0.0 mm 0.00 in0.0 mm 0.00 in0.0 mm
04:40 AM 64.9°F18.3°C 62.8°F17.1°C 93% 1.6 mph E2.6 kmh E 3.1 mph5.0 kmh 29.90 in1012.5 mb 0.00 in0.0 mm 0.00 in0.0 mm 0.00 in0.0 mm
04:45 AM 64.9°F18.3°C 62.8°F17.1°C 93% 2.2 mph E3.5 kmh E 3.8 mph6.1 kmh 29.90 in1012.5 mb 0.00 in0.0 mm 0.00 in0.0 mm 0.00 in0.0 mm
04:50 AM 64.9°F18.3°C 62.8°F17.1°C 93% 1.6 mph SE2.6 kmh SE 3.8 mph6.1 kmh 29.90 in1012.5 mb 0.00 in0.0 mm 0.00 in0.0 mm 0.00 in0.0 mm
04:55 AM 64.9°F18.3°C 62.8°F17.1°C 93% 0.7 mph E1.1 kmh E 3.1 mph5.0 kmh 29.90 in1012.5 mb 0.00 in0.0 mm 0.00 in0.0 mm 0.00 in0.0 mm
05:01 AM 64.8°F18.2°C 62.6°F17.0°C 93% 1.6 mph E2.6 kmh E 2.2 mph3.5 kmh 29.90 in1012.5 mb 0.00 in0.0 mm 0.00 in0.0 mm 0.00 in0.0 mm
05:06 AM 64.8°F18.2°C 62.6°F17.0°C 93% 1.6 mph NE2.6 kmh NE 3.1 mph5.0 kmh 29.90 in1012.5 mb 0.00 in0.0 mm 0.00 in0.0 mm 0.00 in0.0 mm
05:11 AM 64.8°F18.2°C 62.6°F17.0°C 93% 0.7 mph E1.1 kmh E 3.8 mph6.1 kmh 29.90 in1012.5 mb 0.00 in0.0 mm 0.00 in0.0 mm 0.00 in0.0 mm
05:16 AM 64.8°F18.2°C 62.6°F17.0°C 93% 1.6 mph E2.6 kmh E 3.8 mph6.1 kmh 29.91 in1012.9 mb 0.00 in0.0 mm 0.00 in0.0 mm 0.00 in0.0 mm
05:21 AM 64.6°F18.1°C 62.4°F16.9°C 93% 0.7 mph E1.1 kmh E 3.1 mph5.0 kmh 29.90 in1012.5 mb 0.00 in0.0 mm 0.00 in0.0 mm 0.00 in0.0 mm
05:27 AM 64.6°F18.1°C 62.2°F16.8°C 92% 1.6 mph E2.6 kmh E 2.2 mph3.5 kmh 29.90 in1012.5 mb 0.00 in0.0 mm 0.00 in0.0 mm 0.00 in0.0 mm
05:32 AM 64.4°F18.0°C 62.1°F16.7°C 92% 1.6 mph NE2.6 kmh NE 2.2 mph3.5 kmh 29.91 in1012.9 mb 0.00 in0.0 mm 0.00 in0.0 mm 0.00 in0.0 mm
05:37 AM 64.4°F18.0°C 62.1°F16.7°C 92% 0.7 mph SE1.1 kmh SE 3.1 mph5.0 kmh 29.91 in1012.9 mb 0.00 in0.0 mm 0.00 in0.0 mm 0.00 in0.0 mm
05:42 AM 64.4°F18.0°C 62.1°F16.7°C 92% Calm Calm 2.2 mph3.5 kmh 29.91 in1012.9 mb 0.00 in0.0 mm 0.00 in0.0 mm 0.00 in0.0 mm
05:47 AM 64.2°F17.9°C 61.9°F16.6°C 92% 1.6 mph SE2.6 kmh SE 2.2 mph3.5 kmh 29.90 in1012.5 mb 0.00 in0.0 mm 0.00 in0.0 mm 0.00 in0.0 mm
05:52 AM 64.0°F17.8°C 61.7°F16.5°C 92% 2.2 mph E3.5 kmh E 3.8 mph6.1 kmh 29.91 in1012.9 mb 0.00 in0.0 mm 0.00 in0.0 mm 0.00 in0.0 mm
05:58 AM 63.9°F17.7°C 61.9°F16.6°C 93% 1.6 mph SE2.6 kmh SE 3.8 mph6.1 kmh 29.91 in1012.9 mb 0.00 in0.0 mm 0.00 in0.0 mm 0.00 in0.0 mm
06:03 AM 63.9°F17.7°C 61.9°F16.6°C 93% 3.1 mph E5.0 kmh E 3.8 mph6.1 kmh 29.91 in1012.9 mb 0.00 in0.0 mm 0.00 in0.0 mm 0.00 in0.0 mm
06:08 AM 63.9°F17.7°C 61.9°F16.6°C 93% 2.2 mph E3.5 kmh E 3.8 mph6.1 kmh 29.91 in1012.9 mb 0.00 in0.0 mm 0.00 in0.0 mm 0.00 in0.0 mm
06:13 AM 63.9°F17.7°C 61.9°F16.6°C 93% 1.6 mph E2.6 kmh E 3.1 mph5.0 kmh 29.92 in1013.2 mb 0.00 in0.0 mm 0.00 in0.0 mm 0.00 in0.0 mm
06:18 AM 63.9°F17.7°C 61.9°F16.6°C 93% 1.6 mph E2.6 kmh E 3.8 mph6.1 kmh 29.92 in1013.2 mb 0.00 in0.0 mm 0.00 in0.0 mm 0.00 in0.0 mm
06:29 AM 63.9°F17.7°C 61.9°F16.6°C 93% 1.6 mph E2.6 kmh E 3.1 mph5.0 kmh 29.92 in1013.2 mb 0.00 in0.0 mm 0.00 in0.0 mm 0.00 in0.0 mm
06:34 AM 63.9°F17.7°C 61.9°F16.6°C 93% 1.6 mph NE2.6 kmh NE 3.1 mph5.0 kmh 29.92 in1013.2 mb 0.00 in0.0 mm 0.00 in0.0 mm 0.00 in0.0 mm
06:39 AM 63.9°F17.7°C 61.9°F16.6°C 93% 2.2 mph NE3.5 kmh NE 3.1 mph5.0 kmh 29.92 in1013.2 mb 0.00 in0.0 mm 0.00 in0.0 mm 0.00 in0.0 mm
06:44 AM 63.9°F17.7°C 61.9°F16.6°C 93% 2.2 mph E3.5 kmh E 5.4 mph8.7 kmh 29.92 in1013.2 mb 0.00 in0.0 mm 0.00 in0.0 mm 0.00 in0.0 mm
06:49 AM 64.0°F17.8°C 62.1°F16.7°C 93% 3.8 mph E6.1 kmh E 5.4 mph8.7 kmh 29.92 in1013.2 mb 0.00 in0.0 mm 0.00 in0.0 mm 0.00 in0.0 mm
06:54 AM 64.0°F17.8°C 62.1°F16.7°C 93% 2.2 mph E3.5 kmh E 5.4 mph8.7 kmh 29.92 in1013.2 mb 0.00 in0.0 mm 0.00 in0.0 mm 0.00 in0.0 mm
07:00 AM 64.0°F17.8°C 62.1°F16.7°C 93% 2.2 mph E3.5 kmh E 3.1 mph5.0 kmh 29.92 in1013.2 mb 0.00 in0.0 mm 0.00 in0.0 mm 0.00 in0.0 mm
07:05 AM 64.0°F17.8°C 62.1°F16.7°C 93% 2.2 mph ENE3.5 kmh ENE 4.5 mph7.2 kmh 29.93 in1013.5 mb 0.00 in0.0 mm 0.00 in0.0 mm 0.00 in0.0 mm
07:10 AM 64.0°F17.8°C 61.7°F16.5°C 92% 2.2 mph E3.5 kmh E 4.5 mph7.2 kmh 29.93 in1013.5 mb 0.00 in0.0 mm 0.00 in0.0 mm 0.00 in0.0 mm
07:15 AM 64.2°F17.9°C 61.9°F16.6°C 92% 1.6 mph E2.6 kmh E 3.8 mph6.1 kmh 29.93 in1013.5 mb 0.00 in0.0 mm 0.00 in0.0 mm 0.00 in0.0 mm
07:20 AM 65.7°F18.7°C 63.3°F17.4°C 92% 1.6 mph E2.6 kmh E 3.1 mph5.0 kmh 29.93 in1013.5 mb 0.00 in0.0 mm 0.00 in0.0 mm 0.00 in0.0 mm
07:25 AM 66.7°F19.3°C 64.0°F17.8°C 91% 1.6 mph NE2.6 kmh NE 3.1 mph5.0 kmh 29.93 in1013.5 mb 0.00 in0.0 mm 0.00 in0.0 mm 0.00 in0.0 mm
07:31 AM 68.0°F20.0°C 64.4°F18.0°C 88% 1.6 mph NE2.6 kmh NE 3.1 mph5.0 kmh 29.93 in1013.5 mb 0.00 in0.0 mm 0.00 in0.0 mm 0.00 in0.0 mm
07:36 AM 68.4°F20.2°C 63.3°F17.4°C 84% 2.2 mph NE3.5 kmh NE 3.8 mph6.1 kmh 29.93 in1013.5 mb 0.00 in0.0 mm 0.00 in0.0 mm 0.00 in0.0 mm
07:41 AM 68.5°F20.3°C 62.8°F17.1°C 82% 2.2 mph NE3.5 kmh NE 3.8 mph6.1 kmh 29.93 in1013.5 mb 0.00 in0.0 mm 0.00 in0.0 mm 0.00 in0.0 mm
07:46 AM 68.9°F20.5°C 62.4°F16.9°C 80% 3.1 mph E5.0 kmh E 4.5 mph7.2 kmh 29.93 in1013.5 mb 0.00 in0.0 mm 0.00 in0.0 mm 0.00 in0.0 mm
07:51 AM 69.6°F20.9°C 62.8°F17.1°C 79% 1.6 mph NE2.6 kmh NE 4.5 mph7.2 kmh 29.94 in1013.9 mb 0.00 in0.0 mm 0.00 in0.0 mm 0.00 in0.0 mm
07:56 AM 70.3°F21.3°C 63.1°F17.3°C 78% 0.7 mph E1.1 kmh E 3.1 mph5.0 kmh 29.94 in1013.9 mb 0.00 in0.0 mm 0.00 in0.0 mm 0.00 in0.0 mm
08:02 AM 71.8°F22.1°C 64.2°F17.9°C 77% 1.6 mph NE2.6 kmh NE 3.1 mph5.0 kmh 29.95 in1014.2 mb 0.00 in0.0 mm 0.00 in0.0 mm 0.00 in0.0 mm
08:07 AM 72.0°F22.2°C 63.1°F17.3°C 74% 3.1 mph NE5.0 kmh NE 4.5 mph7.2 kmh 29.95 in1014.2 mb 0.00 in0.0 mm 0.00 in0.0 mm 0.00 in0.0 mm
08:12 AM 71.8°F22.1°C 63.0°F17.2°C 74% 1.6 mph E2.6 kmh E 4.5 mph7.2 kmh 29.95 in1014.2 mb 0.00 in0.0 mm 0.00 in0.0 mm 0.00 in0.0 mm
08:17 AM 72.0°F22.2°C 62.8°F17.1°C 73% 3.1 mph NE5.0 kmh NE 5.4 mph8.7 kmh 29.95 in1014.2 mb 0.00 in0.0 mm 0.00 in0.0 mm 0.00 in0.0 mm
08:22 AM 72.3°F22.4°C 63.5°F17.5°C 74% 3.1 mph E5.0 kmh E 4.5 mph7.2 kmh 29.95 in1014.2 mb 0.00 in0.0 mm 0.00 in0.0 mm 0.00 in0.0 mm
08:27 AM 72.9°F22.7°C 63.3°F17.4°C 72% 2.2 mph NE3.5 kmh NE 3.8 mph6.1 kmh 29.95 in1014.2 mb 0.00 in0.0 mm 0.00 in0.0 mm 0.00 in0.0 mm
08:38 AM 74.7°F23.7°C 64.6°F18.1°C 71% 1.6 mph E2.6 kmh E 5.4 mph8.7 kmh 29.95 in1014.2 mb 0.00 in0.0 mm 0.00 in0.0 mm 0.00 in0.0 mm
08:43 AM 75.6°F24.2°C 64.8°F18.2°C 69% 2.2 mph NE3.5 kmh NE 4.5 mph7.2 kmh 29.95 in1014.2 mb 0.00 in0.0 mm 0.00 in0.0 mm 0.00 in0.0 mm
08:48 AM 75.7°F24.3°C 64.4°F18.0°C 68% 3.8 mph 6.1 kmh 4.5 mph7.2 kmh 29.95 in1014.2 mb 0.00 in0.0 mm 0.00 in0.0 mm 0.00 in0.0 mm
08:53 AM 75.4°F24.1°C 64.0°F17.8°C 68% 1.6 mph NE2.6 kmh NE 4.5 mph7.2 kmh 29.95 in1014.2 mb 0.00 in0.0 mm 0.00 in0.0 mm 0.00 in0.0 mm
08:58 AM 75.7°F24.3°C 64.4°F18.0°C 68% 3.1 mph SW5.0 kmh SW 5.4 mph8.7 kmh 29.95 in1014.2 mb 0.00 in0.0 mm 0.00 in0.0 mm 0.00 in0.0 mm
09:04 AM 74.8°F23.8°C 64.0°F17.8°C 69% 1.6 mph NE2.6 kmh NE 6.0 mph9.7 kmh 29.95 in1014.2 mb 0.00 in0.0 mm 0.00 in0.0 mm 0.00 in0.0 mm
09:09 AM 76.8°F24.9°C 65.5°F18.6°C 68% 3.8 mph NW6.1 kmh NW 5.4 mph8.7 kmh 29.96 in1014.6 mb 0.00 in0.0 mm 0.00 in0.0 mm 0.00 in0.0 mm
09:14 AM 75.9°F24.4°C 64.6°F18.1°C 68% 2.2 mph 3.5 kmh 6.9 mph11.1 kmh 29.96 in1014.6 mb 0.00 in0.0 mm 0.00 in0.0 mm 0.00 in0.0 mm
09:19 AM 77.2°F25.1°C 64.9°F18.3°C 66% 1.6 mph 2.6 kmh 6.0 mph9.7 kmh 29.96 in1014.6 mb 0.00 in0.0 mm 0.00 in0.0 mm 0.00 in0.0 mm
09:24 AM 77.7°F25.4°C 64.9°F18.3°C 65% 2.2 mph 3.5 kmh 5.4 mph8.7 kmh 29.95 in1014.2 mb 0.00 in0.0 mm 0.00 in0.0 mm 0.00 in0.0 mm
09:29 AM 78.4°F25.8°C 65.3°F18.5°C 64% 3.8 mph NW6.1 kmh NW 6.0 mph9.7 kmh 29.96 in1014.6 mb 0.00 in0.0 mm 0.00 in0.0 mm 0.00 in0.0 mm
09:35 AM 78.1°F25.6°C 64.4°F18.0°C 63% 3.1 mph NW5.0 kmh NW 6.0 mph9.7 kmh 29.95 in1014.2 mb 0.00 in0.0 mm 0.00 in0.0 mm 0.00 in0.0 mm
09:40 AM 78.6°F25.9°C 64.9°F18.3°C 63% 1.6 mph NE2.6 kmh NE 5.4 mph8.7 kmh 29.96 in1014.6 mb 0.00 in0.0 mm 0.00 in0.0 mm 0.00 in0.0 mm
09:45 AM 81.0°F27.2°C 66.7°F19.3°C 62% 2.2 mph W3.5 kmh W 4.5 mph7.2 kmh 29.96 in1014.6 mb 0.00 in0.0 mm 0.00 in0.0 mm 0.00 in0.0 mm
09:50 AM 80.6°F27.0°C 64.4°F18.0°C 58% 4.5 mph W7.2 kmh W 6.0 mph9.7 kmh 29.96 in1014.6 mb 0.00 in0.0 mm 0.00 in0.0 mm 0.00 in0.0 mm
09:55 AM 80.1°F26.7°C 63.9°F17.7°C 58% 3.1 mph NW5.0 kmh NW 6.0 mph9.7 kmh 29.96 in1014.6 mb 0.00 in0.0 mm 0.00 in0.0 mm 0.00 in0.0 mm
10:00 AM 80.1°F26.7°C 64.4°F18.0°C 59% 0.7 mph NE1.1 kmh NE 6.0 mph9.7 kmh 29.96 in1014.6 mb 0.00 in0.0 mm 0.00 in0.0 mm 0.00 in0.0 mm
10:06 AM 81.5°F27.5°C 64.2°F17.9°C 56% 3.8 mph W6.1 kmh W 5.4 mph8.7 kmh 29.96 in1014.6 mb 0.00 in0.0 mm 0.00 in0.0 mm 0.00 in0.0 mm
10:11 AM 81.0°F27.2°C 64.2°F17.9°C 57% 3.1 mph SW5.0 kmh SW 6.0 mph9.7 kmh 29.96 in1014.6 mb 0.00 in0.0 mm 0.00 in0.0 mm 0.00 in0.0 mm
10:16 AM 81.5°F27.5°C 64.2°F17.9°C 56% 3.1 mph W5.0 kmh W 5.4 mph8.7 kmh 29.96 in1014.6 mb 0.00 in0.0 mm 0.00 in0.0 mm 0.00 in0.0 mm
10:21 AM 82.2°F27.9°C 64.4°F18.0°C 55% 3.1 mph NW5.0 kmh NW 4.5 mph7.2 kmh 29.96 in1014.6 mb 0.00 in0.0 mm 0.00 in0.0 mm 0.00 in0.0 mm
10:26 AM 82.2°F27.9°C 63.3°F17.4°C 53% 3.8 mph W6.1 kmh W 6.0 mph9.7 kmh 29.96 in1014.6 mb 0.00 in0.0 mm 0.00 in0.0 mm 0.00 in0.0 mm
10:31 AM 81.5°F27.5°C 63.9°F17.7°C 55% 2.2 mph NW3.5 kmh NW 5.4 mph8.7 kmh 29.96 in1014.6 mb 0.00 in0.0 mm 0.00 in0.0 mm 0.00 in0.0 mm
10:37 AM 82.2°F27.9°C 64.4°F18.0°C 55% 0.7 mph SW1.1 kmh SW 3.8 mph6.1 kmh 29.96 in1014.6 mb 0.00 in0.0 mm 0.00 in0.0 mm 0.00 in0.0 mm
10:42 AM 83.7°F28.7°C 64.8°F18.2°C 53% 2.2 mph SW3.5 kmh SW 3.8 mph6.1 kmh 29.96 in1014.6 mb 0.00 in0.0 mm 0.00 in0.0 mm 0.00 in0.0 mm
10:47 AM 83.1°F28.4°C 63.1°F17.3°C 51% 3.8 mph W6.1 kmh W 7.6 mph12.2 kmh 29.96 in1014.6 mb 0.00 in0.0 mm 0.00 in0.0 mm 0.00 in0.0 mm
10:52 AM 83.8°F28.8°C 63.9°F17.7°C 51% 0.7 mph SW1.1 kmh SW 5.4 mph8.7 kmh 29.96 in1014.6 mb 0.00 in0.0 mm 0.00 in0.0 mm 0.00 in0.0 mm
10:57 AM 84.0°F28.9°C 63.3°F17.4°C 50% 2.2 mph SSW3.5 kmh SSW 5.4 mph8.7 kmh 29.96 in1014.6 mb 0.00 in0.0 mm 0.00 in0.0 mm 0.00 in0.0 mm
11:02 AM 82.9°F28.3°C 63.5°F17.5°C 52% 3.1 mph WNW5.0 kmh WNW 7.6 mph12.2 kmh 29.96 in1014.6 mb 0.00 in0.0 mm 0.00 in0.0 mm 0.00 in0.0 mm
11:08 AM 83.5°F28.6°C 63.0°F17.2°C 50% 3.8 mph W6.1 kmh W 7.6 mph12.2 kmh 29.96 in1014.6 mb 0.00 in0.0 mm 0.00 in0.0 mm 0.00 in0.0 mm
11:13 AM 83.5°F28.6°C 63.5°F17.5°C 51% 3.8 mph W6.1 kmh W 6.9 mph11.1 kmh 29.96 in1014.6 mb 0.00 in0.0 mm 0.00 in0.0 mm 0.00 in0.0 mm
11:18 AM 83.7°F28.7°C 64.8°F18.2°C 53% 2.2 mph W3.5 kmh W 6.9 mph11.1 kmh 29.96 in1014.6 mb 0.00 in0.0 mm 0.00 in0.0 mm 0.00 in0.0 mm
11:23 AM 84.4°F29.1°C 64.8°F18.2°C 52% 5.4 mph SW8.7 kmh SW 6.0 mph9.7 kmh 29.96 in1014.6 mb 0.00 in0.0 mm 0.00 in0.0 mm 0.00 in0.0 mm
11:28 AM 84.7°F29.3°C 64.0°F17.8°C 50% 3.8 mph SW6.1 kmh SW 7.6 mph12.2 kmh 29.96 in1014.6 mb 0.00 in0.0 mm 0.00 in0.0 mm 0.00 in0.0 mm
11:34 AM 85.3°F29.6°C 64.0°F17.8°C 49% 2.2 mph W3.5 kmh W 6.9 mph11.1 kmh 29.96 in1014.6 mb 0.00 in0.0 mm 0.00 in0.0 mm 0.00 in0.0 mm
11:39 AM 85.6°F29.8°C 63.7°F17.6°C 48% 0.7 mph W1.1 kmh W 6.0 mph9.7 kmh 29.96 in1014.6 mb 0.00 in0.0 mm 0.00 in0.0 mm 0.00 in0.0 mm
11:44 AM 87.3°F30.7°C 64.6°F18.1°C 47% 3.8 mph SW6.1 kmh SW 5.4 mph8.7 kmh 29.96 in1014.6 mb 0.00 in0.0 mm 0.00 in0.0 mm 0.00 in0.0 mm
11:49 AM 86.9°F30.5°C 60.4°F15.8°C 41% 2.2 mph NE3.5 kmh NE 6.0 mph9.7 kmh 29.96 in1014.6 mb 0.00 in0.0 mm 0.00 in0.0 mm 0.00 in0.0 mm
11:54 AM 87.3°F30.7°C 60.6°F15.9°C 41% 4.5 mph NW7.2 kmh NW 6.0 mph9.7 kmh 29.96 in1014.6 mb 0.00 in0.0 mm 0.00 in0.0 mm 0.00 in0.0 mm
11:59 AM 86.9°F30.5°C 60.4°F15.8°C 41% 6.0 mph SW9.7 kmh SW 7.6 mph12.2 kmh 29.96 in1014.6 mb 0.00 in0.0 mm 0.00 in0.0 mm 0.00 in0.0 mm
12:05 PM 86.7°F30.4°C 60.8°F16.0°C 42% 0.7 mph NE1.1 kmh NE 5.4 mph8.7 kmh 29.96 in1014.6 mb 0.00 in0.0 mm 0.00 in0.0 mm 0.00 in0.0 mm
12:10 PM 86.7°F30.4°C 60.8°F16.0°C 42% 2.2 mph WSW3.5 kmh WSW 8.3 mph13.4 kmh 29.96 in1014.6 mb 0.00 in0.0 mm 0.00 in0.0 mm 0.00 in0.0 mm
12:15 PM 87.6°F30.9°C 61.0°F16.1°C 41% 3.1 mph SE5.0 kmh SE 4.5 mph7.2 kmh 29.95 in1014.2 mb 0.00 in0.0 mm 0.00 in0.0 mm 0.00 in0.0 mm
12:20 PM 87.6°F30.9°C 61.0°F16.1°C 41% 3.1 mph ESE5.0 kmh ESE 7.6 mph12.2 kmh 29.95 in1014.2 mb 0.00 in0.0 mm 0.00 in0.0 mm 0.00 in0.0 mm
12:25 PM 86.5°F30.3°C 60.8°F16.0°C 42% 4.5 mph E7.2 kmh E 10.7 mph17.2 kmh 29.95 in1014.2 mb 0.00 in0.0 mm 0.00 in0.0 mm 0.00 in0.0 mm
12:30 PM 86.4°F30.2°C 61.2°F16.2°C 43% 6.0 mph E9.7 kmh E 10.7 mph17.2 kmh 29.95 in1014.2 mb 0.00 in0.0 mm 0.00 in0.0 mm 0.00 in0.0 mm
12:36 PM 88.0°F31.1°C 61.3°F16.3°C 41% 3.1 mph W5.0 kmh W 7.6 mph12.2 kmh 29.95 in1014.2 mb 0.00 in0.0 mm 0.00 in0.0 mm 0.00 in0.0 mm
12:41 PM 88.9°F31.6°C 62.8°F17.1°C 42% 3.8 mph WSW6.1 kmh WSW 5.4 mph8.7 kmh 29.95 in1014.2 mb 0.00 in0.0 mm 0.00 in0.0 mm 0.00 in0.0 mm
12:46 PM 87.4°F30.8°C 60.8°F16.0°C 41% 5.4 mph SW8.7 kmh SW 6.0 mph9.7 kmh 29.95 in1014.2 mb 0.00 in0.0 mm 0.00 in0.0 mm 0.00 in0.0 mm
12:51 PM 86.2°F30.1°C 60.4°F15.8°C 42% 2.2 mph S3.5 kmh S 8.3 mph13.4 kmh 29.95 in1014.2 mb 0.00 in0.0 mm 0.00 in0.0 mm 0.00 in0.0 mm
12:56 PM 88.0°F31.1°C 61.3°F16.3°C 41% 1.6 mph SE2.6 kmh SE 3.1 mph5.0 kmh 29.95 in1014.2 mb 0.00 in0.0 mm 0.00 in0.0 mm 0.00 in0.0 mm
01:01 PM 89.2°F31.8°C 63.1°F17.3°C 42% 3.1 mph SE5.0 kmh SE 5.4 mph8.7 kmh 29.94 in1013.9 mb 0.00 in0.0 mm 0.00 in0.0 mm 0.00 in0.0 mm
01:07 PM 89.8°F32.1°C 63.7°F17.6°C 42% 0.7 mph ENE1.1 kmh ENE 5.4 mph8.7 kmh 29.94 in1013.9 mb 0.00 in0.0 mm 0.00 in0.0 mm 0.00 in0.0 mm
01:12 PM 90.9°F32.7°C 63.1°F17.3°C 40% 2.2 mph W3.5 kmh W 4.5 mph7.2 kmh 29.94 in1013.9 mb 0.00 in0.0 mm 0.00 in0.0 mm 0.00 in0.0 mm
01:17 PM 90.9°F32.7°C 63.1°F17.3°C 40% 2.2 mph NW3.5 kmh NW 5.4 mph8.7 kmh 29.94 in1013.9 mb 0.00 in0.0 mm 0.00 in0.0 mm 0.00 in0.0 mm
01:22 PM 90.7°F32.6°C 62.2°F16.8°C 39% 2.2 mph E3.5 kmh E 6.0 mph9.7 kmh 29.94 in1013.9 mb 0.00 in0.0 mm 0.00 in0.0 mm 0.00 in0.0 mm
01:27 PM 90.9°F32.7°C 62.4°F16.9°C 39% 2.2 mph 3.5 kmh 5.4 mph8.7 kmh 29.94 in1013.9 mb 0.00 in0.0 mm 0.00 in0.0 mm 0.00 in0.0 mm
01:32 PM 91.8°F33.2°C 63.3°F17.4°C 39% 0.7 mph E1.1 kmh E 5.4 mph8.7 kmh 29.94 in1013.9 mb 0.00 in0.0 mm 0.00 in0.0 mm 0.00 in0.0 mm
01:38 PM 92.3°F33.5°C 62.2°F16.8°C 37% 3.1 mph SE5.0 kmh SE 6.0 mph9.7 kmh 29.94 in1013.9 mb 0.00 in0.0 mm 0.00 in0.0 mm 0.00 in0.0 mm
01:43 PM 90.9°F32.7°C 61.7°F16.5°C 38% 3.8 mph E6.1 kmh E 9.2 mph14.8 kmh 29.94 in1013.9 mb 0.00 in0.0 mm 0.00 in0.0 mm 0.00 in0.0 mm
01:48 PM 89.8°F32.1°C 62.2°F16.8°C 40% 2.2 mph E3.5 kmh E 6.0 mph9.7 kmh 29.94 in1013.9 mb 0.00 in0.0 mm 0.00 in0.0 mm 0.00 in0.0 mm
01:53 PM 88.9°F31.6°C 62.1°F16.7°C 41% 3.1 mph S5.0 kmh S 6.0 mph9.7 kmh 29.94 in1013.9 mb 0.00 in0.0 mm 0.00 in0.0 mm 0.00 in0.0 mm
01:58 PM 87.8°F31.0°C 60.4°F15.8°C 40% 2.2 mph S3.5 kmh S 6.0 mph9.7 kmh 29.93 in1013.5 mb 0.00 in0.0 mm 0.00 in0.0 mm 0.00 in0.0 mm
02:03 PM 87.3°F30.7°C 59.9°F15.5°C 40% 3.8 mph S6.1 kmh S 7.6 mph12.2 kmh 29.93 in1013.5 mb 0.00 in0.0 mm 0.00 in0.0 mm 0.00 in0.0 mm
02:09 PM 87.8°F31.0°C 61.2°F16.2°C 41% 2.2 mph S3.5 kmh S 7.6 mph12.2 kmh 29.93 in1013.5 mb 0.00 in0.0 mm 0.00 in0.0 mm 0.00 in0.0 mm
02:14 PM 90.7°F32.6°C 63.0°F17.2°C 40% 1.6 mph SE2.6 kmh SE 6.9 mph11.1 kmh 29.93 in1013.5 mb 0.00 in0.0 mm 0.00 in0.0 mm 0.00 in0.0 mm
02:19 PM 91.4°F33.0°C 63.0°F17.2°C 39% 3.1 mph W5.0 kmh W 5.4 mph8.7 kmh 29.93 in1013.5 mb 0.00 in0.0 mm 0.00 in0.0 mm 0.00 in0.0 mm
02:24 PM 92.7°F33.7°C 63.3°F17.4°C 38% 3.1 mph NW5.0 kmh NW 4.5 mph7.2 kmh 29.93 in1013.5 mb 0.00 in0.0 mm 0.00 in0.0 mm 0.00 in0.0 mm
02:29 PM 91.2°F32.9°C 62.8°F17.1°C 39% 4.5 mph S7.2 kmh S 9.8 mph15.8 kmh 29.93 in1013.5 mb 0.00 in0.0 mm 0.00 in0.0 mm 0.00 in0.0 mm
02:34 PM 90.7°F32.6°C 62.2°F16.8°C 39% 1.6 mph NNW2.6 kmh NNW 7.6 mph12.2 kmh 29.93 in1013.5 mb 0.00 in0.0 mm 0.00 in0.0 mm 0.00 in0.0 mm
02:40 PM 91.4°F33.0°C 62.2°F16.8°C 38% 3.8 mph SE6.1 kmh SE 5.4 mph8.7 kmh 29.93 in1013.5 mb 0.00 in0.0 mm 0.00 in0.0 mm 0.00 in0.0 mm
02:45 PM 89.2°F31.8°C 62.4°F16.9°C 41% 1.6 mph S2.6 kmh S 7.6 mph12.2 kmh 29.93 in1013.5 mb 0.00 in0.0 mm 0.00 in0.0 mm 0.00 in0.0 mm
02:50 PM 89.2°F31.8°C 63.1°F17.3°C 42% 2.2 mph S3.5 kmh S 8.3 mph13.4 kmh 29.92 in1013.2 mb 0.00 in0.0 mm 0.00 in0.0 mm 0.00 in0.0 mm
02:55 PM 88.5°F31.4°C 60.4°F15.8°C 39% 0.7 mph SE1.1 kmh SE 8.3 mph13.4 kmh 29.92 in1013.2 mb 0.00 in0.0 mm 0.00 in0.0 mm 0.00 in0.0 mm
03:00 PM 90.7°F32.6°C 61.5°F16.4°C 38% 6.9 mph W11.1 kmh W 9.8 mph15.8 kmh 29.92 in1013.2 mb 0.00 in0.0 mm 0.00 in0.0 mm 0.00 in0.0 mm
03:05 PM 89.1°F31.7°C 61.5°F16.4°C 40% 1.6 mph S2.6 kmh S 9.8 mph15.8 kmh 29.92 in1013.2 mb 0.00 in0.0 mm 0.00 in0.0 mm 0.00 in0.0 mm
03:11 PM 88.3°F31.3°C 60.3°F15.7°C 39% 2.2 mph NE3.5 kmh NE 4.5 mph7.2 kmh 29.91 in1012.9 mb 0.00 in0.0 mm 0.00 in0.0 mm 0.00 in0.0 mm
03:16 PM 88.7°F31.5°C 62.6°F17.0°C 42% 2.2 mph 3.5 kmh 4.5 mph7.2 kmh 29.91 in1012.9 mb 0.00 in0.0 mm 0.00 in0.0 mm 0.00 in0.0 mm
03:21 PM 87.8°F31.0°C 60.4°F15.8°C 40% 4.5 mph SE7.2 kmh SE 7.6 mph12.2 kmh 29.91 in1012.9 mb 0.00 in0.0 mm 0.00 in0.0 mm 0.00 in0.0 mm
03:26 PM 88.7°F31.5°C 62.6°F17.0°C 42% 0.7 mph NNW1.1 kmh NNW 4.5 mph7.2 kmh 29.91 in1012.9 mb 0.00 in0.0 mm 0.00 in0.0 mm 0.00 in0.0 mm
03:31 PM 88.7°F31.5°C 62.1°F16.7°C 41% 5.4 mph W8.7 kmh W 6.9 mph11.1 kmh 29.91 in1012.9 mb 0.00 in0.0 mm 0.00 in0.0 mm 0.00 in0.0 mm
03:36 PM 88.2°F31.2°C 60.1°F15.6°C 39% 2.2 mph W3.5 kmh W 6.0 mph9.7 kmh 29.91 in1012.9 mb 0.00 in0.0 mm 0.00 in0.0 mm 0.00 in0.0 mm
03:42 PM 90.7°F32.6°C 63.0°F17.2°C 40% 2.2 mph E3.5 kmh E 4.5 mph7.2 kmh 29.91 in1012.9 mb 0.00 in0.0 mm 0.00 in0.0 mm 0.00 in0.0 mm
03:47 PM 90.9°F32.7°C 63.1°F17.3°C 40% 1.6 mph SE2.6 kmh SE 6.0 mph9.7 kmh 29.91 in1012.9 mb 0.00 in0.0 mm 0.00 in0.0 mm 0.00 in0.0 mm
03:52 PM 89.8°F32.1°C 60.8°F16.0°C 38% 1.6 mph E2.6 kmh E 11.4 mph18.3 kmh 29.90 in1012.5 mb 0.00 in0.0 mm 0.00 in0.0 mm 0.00 in0.0 mm
03:57 PM 92.3°F33.5°C 62.2°F16.8°C 37% 2.2 mph S3.5 kmh S 4.5 mph7.2 kmh 29.90 in1012.5 mb 0.00 in0.0 mm 0.00 in0.0 mm 0.00 in0.0 mm
04:02 PM 92.1°F33.4°C 61.3°F16.3°C 36% 3.8 mph SW6.1 kmh SW 12.1 mph19.5 kmh 29.90 in1012.5 mb 0.00 in0.0 mm 0.00 in0.0 mm 0.00 in0.0 mm
04:07 PM 90.9°F32.7°C 61.0°F16.1°C 37% 6.0 mph SW9.7 kmh SW 10.7 mph17.2 kmh 29.90 in1012.5 mb 0.00 in0.0 mm 0.00 in0.0 mm 0.00 in0.0 mm
04:13 PM 89.8°F32.1°C 61.5°F16.4°C 39% 6.0 mph SW9.7 kmh SW 9.8 mph15.8 kmh 29.90 in1012.5 mb 0.00 in0.0 mm 0.00 in0.0 mm 0.00 in0.0 mm
04:18 PM 90.7°F32.6°C 61.5°F16.4°C 38% 0.7 mph SSE1.1 kmh SSE 8.3 mph13.4 kmh 29.90 in1012.5 mb 0.00 in0.0 mm 0.00 in0.0 mm 0.00 in0.0 mm
04:23 PM 91.9°F33.3°C 61.2°F16.2°C 36% 3.8 mph SSW6.1 kmh SSW 9.2 mph14.8 kmh 29.90 in1012.5 mb 0.00 in0.0 mm 0.00 in0.0 mm 0.00 in0.0 mm
04:28 PM 90.7°F32.6°C 60.8°F16.0°C 37% 9.8 mph SW15.8 kmh SW 11.4 mph18.3 kmh 29.90 in1012.5 mb 0.00 in0.0 mm 0.00 in0.0 mm 0.00 in0.0 mm
04:33 PM 89.8°F32.1°C 62.2°F16.8°C 40% 7.6 mph WSW12.2 kmh WSW 9.8 mph15.8 kmh 29.90 in1012.5 mb 0.00 in0.0 mm 0.00 in0.0 mm 0.00 in0.0 mm
04:38 PM 89.6°F32.0°C 61.3°F16.3°C 39% 3.8 mph NW6.1 kmh NW 9.8 mph15.8 kmh 29.90 in1012.5 mb 0.00 in0.0 mm 0.00 in0.0 mm 0.00 in0.0 mm
04:44 PM 89.8°F32.1°C 61.5°F16.4°C 39% 4.5 mph W7.2 kmh W 6.9 mph11.1 kmh 29.90 in1012.5 mb 0.00 in0.0 mm 0.00 in0.0 mm 0.00 in0.0 mm
04:49 PM 90.9°F32.7°C 59.4°F15.2°C 35% 6.0 mph NW9.7 kmh NW 8.3 mph13.4 kmh 29.90 in1012.5 mb 0.00 in0.0 mm 0.00 in0.0 mm 0.00 in0.0 mm
04:54 PM 90.9°F32.7°C 60.3°F15.7°C 36% 6.0 mph SW9.7 kmh SW 8.3 mph13.4 kmh 29.90 in1012.5 mb 0.00 in0.0 mm 0.00 in0.0 mm 0.00 in0.0 mm
04:59 PM 89.8°F32.1°C 60.1°F15.6°C 37% 1.6 mph SW2.6 kmh SW 8.3 mph13.4 kmh 29.90 in1012.5 mb 0.00 in0.0 mm 0.00 in0.0 mm 0.00 in0.0 mm
05:04 PM 90.9°F32.7°C 59.4°F15.2°C 35% 3.1 mph SW5.0 kmh SW 8.3 mph13.4 kmh 29.90 in1012.5 mb 0.00 in0.0 mm 0.00 in0.0 mm 0.00 in0.0 mm
05:09 PM 90.0°F32.2°C 59.4°F15.2°C 36% 3.8 mph SE6.1 kmh SE 7.6 mph12.2 kmh 29.90 in1012.5 mb 0.00 in0.0 mm 0.00 in0.0 mm 0.00 in0.0 mm
05:15 PM 89.8°F32.1°C 59.2°F15.1°C 36% 4.5 mph SW7.2 kmh SW 9.2 mph14.8 kmh 29.90 in1012.5 mb 0.00 in0.0 mm 0.00 in0.0 mm 0.00 in0.0 mm
05:20 PM 90.0°F32.2°C 60.3°F15.7°C 37% 6.0 mph SW9.7 kmh SW 7.6 mph12.2 kmh 29.90 in1012.5 mb 0.00 in0.0 mm 0.00 in0.0 mm 0.00 in0.0 mm
05:25 PM 90.0°F32.2°C 58.6°F14.8°C 35% 6.0 mph S9.7 kmh S 7.6 mph12.2 kmh 29.90 in1012.5 mb 0.00 in0.0 mm 0.00 in0.0 mm 0.00 in0.0 mm
05:30 PM 89.8°F32.1°C 58.5°F14.7°C 35% 5.4 mph SW8.7 kmh SW 8.3 mph13.4 kmh 29.90 in1012.5 mb 0.00 in0.0 mm 0.00 in0.0 mm 0.00 in0.0 mm
05:35 PM 88.9°F31.6°C 57.7°F14.3°C 35% 6.0 mph SW9.7 kmh SW 9.8 mph15.8 kmh 29.90 in1012.5 mb 0.00 in0.0 mm 0.00 in0.0 mm 0.00 in0.0 mm
05:41 PM 89.6°F32.0°C 59.2°F15.1°C 36% 3.8 mph SSW6.1 kmh SSW 11.4 mph18.3 kmh 29.90 in1012.5 mb 0.00 in0.0 mm 0.00 in0.0 mm 0.00 in0.0 mm
05:46 PM 90.9°F32.7°C 59.4°F15.2°C 35% 1.6 mph W2.6 kmh W 5.4 mph8.7 kmh 29.90 in1012.5 mb 0.00 in0.0 mm 0.00 in0.0 mm 0.00 in0.0 mm
05:51 PM 90.9°F32.7°C 60.3°F15.7°C 36% 3.8 mph WSW6.1 kmh WSW 6.9 mph11.1 kmh 29.90 in1012.5 mb 0.00 in0.0 mm 0.00 in0.0 mm 0.00 in0.0 mm
05:56 PM 89.8°F32.1°C 59.2°F15.1°C 36% 4.5 mph NW7.2 kmh NW 7.6 mph12.2 kmh 29.90 in1012.5 mb 0.00 in0.0 mm 0.00 in0.0 mm 0.00 in0.0 mm
06:01 PM 89.4°F31.9°C 59.0°F15.0°C 36% 6.0 mph S9.7 kmh S 8.3 mph13.4 kmh 29.90 in1012.5 mb 0.00 in0.0 mm 0.00 in0.0 mm 0.00 in0.0 mm
06:06 PM 89.1°F31.7°C 58.6°F14.8°C 36% 3.8 mph SSW6.1 kmh SSW 8.3 mph13.4 kmh 29.90 in1012.5 mb 0.00 in0.0 mm 0.00 in0.0 mm 0.00 in0.0 mm
06:12 PM 88.7°F31.5°C 59.0°F15.0°C 37% 4.5 mph SW7.2 kmh SW 7.6 mph12.2 kmh 29.90 in1012.5 mb 0.00 in0.0 mm 0.00 in0.0 mm 0.00 in0.0 mm
06:17 PM 88.3°F31.3°C 58.8°F14.9°C 37% 3.8 mph WSW6.1 kmh WSW 6.9 mph11.1 kmh 29.90 in1012.5 mb 0.00 in0.0 mm 0.00 in0.0 mm 0.00 in0.0 mm
06:22 PM 88.9°F31.6°C 58.5°F14.7°C 36% 5.4 mph S8.7 kmh S 9.2 mph14.8 kmh 29.90 in1012.5 mb 0.00 in0.0 mm 0.00 in0.0 mm 0.00 in0.0 mm
06:27 PM 88.5°F31.4°C 57.4°F14.1°C 35% 3.1 mph S5.0 kmh S 9.2 mph14.8 kmh 29.89 in1012.2 mb 0.00 in0.0 mm 0.00 in0.0 mm 0.00 in0.0 mm
06:32 PM 88.9°F31.6°C 59.2°F15.1°C 37% 2.2 mph S3.5 kmh S 5.4 mph8.7 kmh 29.90 in1012.5 mb 0.00 in0.0 mm 0.00 in0.0 mm 0.00 in0.0 mm
06:37 PM 89.2°F31.8°C 59.5°F15.3°C 37% 4.5 mph SSW7.2 kmh SSW 7.6 mph12.2 kmh 29.90 in1012.5 mb 0.00 in0.0 mm 0.00 in0.0 mm 0.00 in0.0 mm
06:43 PM 88.5°F31.4°C 59.7°F15.4°C 38% 2.2 mph S3.5 kmh S 6.0 mph9.7 kmh 29.90 in1012.5 mb 0.00 in0.0 mm 0.00 in0.0 mm 0.00 in0.0 mm
06:48 PM 88.2°F31.2°C 60.1°F15.6°C 39% 3.1 mph SE5.0 kmh SE 6.9 mph11.1 kmh 29.90 in1012.5 mb 0.00 in0.0 mm 0.00 in0.0 mm 0.00 in0.0 mm
06:53 PM 88.0°F31.1°C 59.9°F15.5°C 39% 3.8 mph S6.1 kmh S 5.4 mph8.7 kmh 29.90 in1012.5 mb 0.00 in0.0 mm 0.00 in0.0 mm 0.00 in0.0 mm
06:58 PM 87.4°F30.8°C 59.4°F15.2°C 39% 2.2 mph SW3.5 kmh SW 5.4 mph8.7 kmh 29.90 in1012.5 mb 0.00 in0.0 mm 0.00 in0.0 mm 0.00 in0.0 mm
07:03 PM 87.3°F30.7°C 60.6°F15.9°C 41% 2.2 mph SSE3.5 kmh SSE 5.4 mph8.7 kmh 29.90 in1012.5 mb 0.00 in0.0 mm 0.00 in0.0 mm 0.00 in0.0 mm
07:08 PM 86.5°F30.3°C 60.8°F16.0°C 42% 2.2 mph SW3.5 kmh SW 5.4 mph8.7 kmh 29.90 in1012.5 mb 0.00 in0.0 mm 0.00 in0.0 mm 0.00 in0.0 mm
07:14 PM 86.4°F30.2°C 61.2°F16.2°C 43% 1.6 mph S2.6 kmh S 4.5 mph7.2 kmh 29.90 in1012.5 mb 0.00 in0.0 mm 0.00 in0.0 mm 0.00 in0.0 mm
07:19 PM 85.5°F29.7°C 60.4°F15.8°C 43% 3.8 mph SE6.1 kmh SE 5.4 mph8.7 kmh 29.90 in1012.5 mb 0.00 in0.0 mm 0.00 in0.0 mm 0.00 in0.0 mm
07:24 PM 84.7°F29.3°C 61.0°F16.1°C 45% 3.1 mph S5.0 kmh S 5.4 mph8.7 kmh 29.90 in1012.5 mb 0.00 in0.0 mm 0.00 in0.0 mm 0.00 in0.0 mm
07:29 PM 83.7°F28.7°C 61.3°F16.3°C 47% 3.8 mph S6.1 kmh S 5.4 mph8.7 kmh 29.90 in1012.5 mb 0.00 in0.0 mm 0.00 in0.0 mm 0.00 in0.0 mm
07:34 PM 83.1°F28.4°C 62.1°F16.7°C 49% 2.2 mph SE3.5 kmh SE 4.5 mph7.2 kmh 29.90 in1012.5 mb 0.00 in0.0 mm 0.00 in0.0 mm 0.00 in0.0 mm
07:39 PM 82.2°F27.9°C 61.7°F16.5°C 50% 2.2 mph S3.5 kmh S 4.5 mph7.2 kmh 29.91 in1012.9 mb 0.00 in0.0 mm 0.00 in0.0 mm 0.00 in0.0 mm
07:45 PM 82.0°F27.8°C 62.1°F16.7°C 51% 1.6 mph S2.6 kmh S 3.8 mph6.1 kmh 29.91 in1012.9 mb 0.00 in0.0 mm 0.00 in0.0 mm 0.00 in0.0 mm
07:50 PM 81.7°F27.6°C 61.9°F16.6°C 51% 1.6 mph S2.6 kmh S 3.1 mph5.0 kmh 29.91 in1012.9 mb 0.00 in0.0 mm 0.00 in0.0 mm 0.00 in0.0 mm
07:55 PM 81.3°F27.4°C 62.6°F17.0°C 53% 0.7 mph SE1.1 kmh SE 3.1 mph5.0 kmh 29.91 in1012.9 mb 0.00 in0.0 mm 0.00 in0.0 mm 0.00 in0.0 mm
08:00 PM 81.0°F27.2°C 62.2°F16.8°C 53% 2.2 mph S3.5 kmh S 3.1 mph5.0 kmh 29.91 in1012.9 mb 0.00 in0.0 mm 0.00 in0.0 mm 0.00 in0.0 mm
08:05 PM 80.6°F27.0°C 61.9°F16.6°C 53% 0.7 mph S1.1 kmh S 3.8 mph6.1 kmh 29.91 in1012.9 mb 0.00 in0.0 mm 0.00 in0.0 mm 0.00 in0.0 mm
08:10 PM 80.2°F26.8°C 62.1°F16.7°C 54% Calm Calm 2.2 mph3.5 kmh 29.92 in1013.2 mb 0.00 in0.0 mm 0.00 in0.0 mm 0.00 in0.0 mm
08:16 PM 79.5°F26.4°C 61.9°F16.6°C 55% Calm Calm 1.6 mph2.6 kmh 29.92 in1013.2 mb 0.00 in0.0 mm 0.00 in0.0 mm 0.00 in0.0 mm
08:21 PM 79.3°F26.3°C 62.8°F17.1°C 57% 0.7 mph S1.1 kmh S 2.2 mph3.5 kmh 29.92 in1013.2 mb 0.00 in0.0 mm 0.00 in0.0 mm 0.00 in0.0 mm
08:26 PM 79.3°F26.3°C 62.8°F17.1°C 57% 1.6 mph S2.6 kmh S 4.5 mph7.2 kmh 29.92 in1013.2 mb 0.00 in0.0 mm 0.00 in0.0 mm 0.00 in0.0 mm
08:31 PM 78.6°F25.9°C 62.1°F16.7°C 57% 1.6 mph S2.6 kmh S 3.1 mph5.0 kmh 29.93 in1013.5 mb 0.00 in0.0 mm 0.00 in0.0 mm 0.00 in0.0 mm
08:36 PM 78.6°F25.9°C 62.1°F16.7°C 57% 0.7 mph SE1.1 kmh SE 3.8 mph6.1 kmh 29.93 in1013.5 mb 0.00 in0.0 mm 0.00 in0.0 mm 0.00 in0.0 mm
08:41 PM 78.6°F25.9°C 62.6°F17.0°C 58% 0.7 mph SE1.1 kmh SE 3.1 mph5.0 kmh 29.93 in1013.5 mb 0.00 in0.0 mm 0.00 in0.0 mm 0.00 in0.0 mm
08:47 PM 78.4°F25.8°C 62.4°F16.9°C 58% Calm Calm 1.6 mph2.6 kmh 29.93 in1013.5 mb 0.00 in0.0 mm 0.00 in0.0 mm 0.00 in0.0 mm
08:52 PM 77.7°F25.4°C 64.9°F18.3°C 65% 0.7 mph 1.1 kmh 2.2 mph3.5 kmh 29.93 in1013.5 mb 0.00 in0.0 mm 0.00 in0.0 mm 0.00 in0.0 mm
08:57 PM 76.5°F24.7°C 65.5°F18.6°C 69% Calm Calm 1.6 mph2.6 kmh 29.94 in1013.9 mb 0.00 in0.0 mm 0.00 in0.0 mm 0.00 in0.0 mm
09:02 PM 75.7°F24.3°C 65.7°F18.7°C 71% Calm Calm 1.6 mph2.6 kmh 29.94 in1013.9 mb 0.00 in0.0 mm 0.00 in0.0 mm 0.00 in0.0 mm
09:07 PM 75.0°F23.9°C 64.9°F18.3°C 71% Calm Calm 0.7 mph1.1 kmh 29.94 in1013.9 mb 0.00 in0.0 mm 0.00 in0.0 mm 0.00 in0.0 mm
09:12 PM 74.7°F23.7°C 64.6°F18.1°C 71% Calm Calm -- 29.94 in1013.9 mb 0.00 in0.0 mm 0.00 in0.0 mm 0.00 in0.0 mm
09:18 PM 74.5°F23.6°C 65.3°F18.5°C 73% Calm Calm -- 29.95 in1014.2 mb 0.00 in0.0 mm 0.00 in0.0 mm 0.00 in0.0 mm
09:23 PM 74.3°F23.5°C 65.5°F18.6°C 74% Calm Calm -- 29.95 in1014.2 mb 0.00 in0.0 mm 0.00 in0.0 mm 0.00 in0.0 mm
09:28 PM 74.3°F23.5°C 65.5°F18.6°C 74% Calm Calm -- 29.95 in1014.2 mb 0.00 in0.0 mm 0.00 in0.0 mm 0.00 in0.0 mm
09:33 PM 74.3°F23.5°C 65.5°F18.6°C 74% Calm Calm 0.7 mph1.1 kmh 29.96 in1014.6 mb 0.00 in0.0 mm 0.00 in0.0 mm 0.00 in0.0 mm
09:38 PM 74.1°F23.4°C 66.0°F18.9°C 76% Calm Calm 1.6 mph2.6 kmh 29.95 in1014.2 mb 0.00 in0.0 mm 0.00 in0.0 mm 0.00 in0.0 mm
09:43 PM 73.8°F23.2°C 66.0°F18.9°C 77% 2.2 mph NE3.5 kmh NE 3.8 mph6.1 kmh 29.96 in1014.6 mb 0.00 in0.0 mm 0.00 in0.0 mm 0.00 in0.0 mm
09:49 PM 73.2°F22.9°C 65.1°F18.4°C 76% 1.6 mph NE2.6 kmh NE 3.1 mph5.0 kmh 29.96 in1014.6 mb 0.00 in0.0 mm 0.00 in0.0 mm 0.00 in0.0 mm
09:54 PM 73.4°F23.0°C 64.6°F18.1°C 74% 2.2 mph E3.5 kmh E 5.4 mph8.7 kmh 29.96 in1014.6 mb 0.00 in0.0 mm 0.00 in0.0 mm 0.00 in0.0 mm
09:59 PM 73.6°F23.1°C 64.4°F18.0°C 73% 0.7 mph E1.1 kmh E 3.8 mph6.1 kmh 29.96 in1014.6 mb 0.00 in0.0 mm 0.00 in0.0 mm 0.00 in0.0 mm
10:04 PM 73.9°F23.3°C 64.4°F18.0°C 72% 0.7 mph E1.1 kmh E 2.2 mph3.5 kmh 29.96 in1014.6 mb 0.00 in0.0 mm 0.00 in0.0 mm 0.00 in0.0 mm
10:09 PM 73.9°F23.3°C 64.4°F18.0°C 72% Calm Calm 0.7 mph1.1 kmh 29.96 in1014.6 mb 0.00 in0.0 mm 0.00 in0.0 mm 0.00 in0.0 mm
10:14 PM 73.4°F23.0°C 64.2°F17.9°C 73% Calm Calm 1.6 mph2.6 kmh 29.96 in1014.6 mb 0.00 in0.0 mm 0.00 in0.0 mm 0.00 in0.0 mm
10:20 PM 73.0°F22.8°C 64.2°F17.9°C 74% 0.7 mph 1.1 kmh 1.6 mph2.6 kmh 29.96 in1014.6 mb 0.00 in0.0 mm 0.00 in0.0 mm 0.00 in0.0 mm
10:25 PM 72.7°F22.6°C 64.2°F17.9°C 75% 1.6 mph ENE2.6 kmh ENE 2.2 mph3.5 kmh 29.97 in1014.9 mb 0.00 in0.0 mm 0.00 in0.0 mm 0.00 in0.0 mm
10:30 PM 72.9°F22.7°C 64.0°F17.8°C 74% Calm Calm 2.2 mph3.5 kmh 29.96 in1014.6 mb 0.00 in0.0 mm 0.00 in0.0 mm 0.00 in0.0 mm
10:35 PM 73.0°F22.8°C 64.2°F17.9°C 74% 1.6 mph E2.6 kmh E 3.1 mph5.0 kmh 29.97 in1014.9 mb 0.00 in0.0 mm 0.00 in0.0 mm 0.00 in0.0 mm
10:40 PM 73.4°F23.0°C 63.9°F17.7°C 72% 0.7 mph NNE1.1 kmh NNE 3.1 mph5.0 kmh 29.97 in1014.9 mb 0.00 in0.0 mm 0.00 in0.0 mm 0.00 in0.0 mm
10:45 PM 73.4°F23.0°C 63.9°F17.7°C 72% 1.6 mph NE2.6 kmh NE 2.2 mph3.5 kmh 29.97 in1014.9 mb 0.00 in0.0 mm 0.00 in0.0 mm 0.00 in0.0 mm
10:51 PM 73.2°F22.9°C 63.7°F17.6°C 72% 1.6 mph E2.6 kmh E 2.2 mph3.5 kmh 29.97 in1014.9 mb 0.00 in0.0 mm 0.00 in0.0 mm 0.00 in0.0 mm
10:56 PM 73.2°F22.9°C 63.7°F17.6°C 72% 1.6 mph NE2.6 kmh NE 3.8 mph6.1 kmh 29.97 in1014.9 mb 0.00 in0.0 mm 0.00 in0.0 mm 0.00 in0.0 mm
11:01 PM 73.2°F22.9°C 63.7°F17.6°C 72% 2.2 mph E3.5 kmh E 3.8 mph6.1 kmh 29.97 in1014.9 mb 0.00 in0.0 mm 0.00 in0.0 mm 0.00 in0.0 mm
11:06 PM 73.0°F22.8°C 63.5°F17.5°C 72% 2.2 mph E3.5 kmh E 3.1 mph5.0 kmh 29.97 in1014.9 mb 0.00 in0.0 mm 0.00 in0.0 mm 0.00 in0.0 mm
11:11 PM 73.0°F22.8°C 63.5°F17.5°C 72% 2.2 mph E3.5 kmh E 3.8 mph6.1 kmh 29.98 in1015.2 mb 0.00 in0.0 mm 0.00 in0.0 mm 0.00 in0.0 mm
11:17 PM 73.0°F22.8°C 63.5°F17.5°C 72% 2.2 mph E3.5 kmh E 3.8 mph6.1 kmh 29.98 in1015.2 mb 0.00 in0.0 mm 0.00 in0.0 mm 0.00 in0.0 mm
11:22 PM 72.9°F22.7°C 63.3°F17.4°C 72% 2.2 mph E3.5 kmh E 3.1 mph5.0 kmh 29.98 in1015.2 mb 0.00 in0.0 mm 0.00 in0.0 mm 0.00 in0.0 mm
11:27 PM 72.9°F22.7°C 63.3°F17.4°C 72% 2.2 mph E3.5 kmh E 3.8 mph6.1 kmh 29.98 in1015.2 mb 0.00 in0.0 mm 0.00 in0.0 mm 0.00 in0.0 mm
11:32 PM 72.7°F22.6°C 63.5°F17.5°C 73% 0.7 mph E1.1 kmh E 3.1 mph5.0 kmh 29.98 in1015.2 mb 0.00 in0.0 mm 0.00 in0.0 mm 0.00 in0.0 mm
11:37 PM 72.7°F22.6°C 63.5°F17.5°C 73% 1.6 mph E2.6 kmh E 3.1 mph5.0 kmh 29.98 in1015.2 mb 0.00 in0.0 mm 0.00 in0.0 mm 0.00 in0.0 mm
11:42 PM 72.5°F22.5°C 63.7°F17.6°C 74% 2.2 mph E3.5 kmh E 3.8 mph6.1 kmh 29.98 in1015.2 mb 0.00 in0.0 mm 0.00 in0.0 mm 0.00 in0.0 mm
11:48 PM 72.1°F22.3°C 63.9°F17.7°C 75% 1.6 mph NNE2.6 kmh NNE 3.8 mph6.1 kmh 29.98 in1015.2 mb 0.00 in0.0 mm 0.00 in0.0 mm 0.00 in0.0 mm
11:53 PM 72.0°F22.2°C 64.0°F17.8°C 76% 3.1 mph ESE5.0 kmh ESE 3.8 mph6.1 kmh 29.98 in1015.2 mb 0.00 in0.0 mm 0.00 in0.0 mm 0.00 in0.0 mm
11:58 PM 71.8°F22.1°C 63.9°F17.7°C 76% 3.1 mph E5.0 kmh E 4.5 mph7.2 kmh 29.98 in1015.2 mb 0.00 in0.0 mm 0.00 in0.0 mm 0.00 in0.0 mm